Time;durP1;ratioP1;P1;durP2;ratioP2;P2;SDS_P1;SDS_P2;PMS_P1;PMS_P2;Temp;Humidity;BMP_temperature;BMP_pressure;BME280_temperature;BME280_humidity;BME280_pressure;Samples;Min_cycle;Max_cycle;Signal;HPM_P1;HPM_P2
2024/04/03 00:00:53;;;;;;;1.88;0.30;;;13.60;90.00;;;;;;5106220;27;20202;-60
2024/04/03 00:03:19;;;;;;;0.98;0.20;;;13.70;90.00;;;;;;5123105;27;20031;-61
2024/04/03 00:05:45;;;;;;;4.03;0.20;;;13.80;90.10;;;;;;5107715;27;20043;-61
2024/04/03 00:08:11;;;;;;;2.58;0.20;;;13.70;90.10;;;;;;5122497;27;20089;-60
2024/04/03 00:10:37;;;;;;;2.53;0.25;;;13.80;90.10;;;;;;5121066;27;20058;-61
2024/04/03 00:13:03;;;;;;;0.88;0.10;;;13.80;90.20;;;;;;5118856;27;20035;-60
2024/04/03 00:15:29;;;;;;;2.25;0.20;;;13.80;90.20;;;;;;5108567;27;20050;-60
2024/04/03 00:17:54;;;;;;;1.27;0.13;;;13.80;90.20;;;;;;5117637;27;20134;-61
2024/04/03 00:20:23;;;;;;;4.38;0.10;;;13.80;90.20;;;;;;5112531;27;20047;-61
2024/04/03 00:22:49;;;;;;;2.95;0.13;;;13.80;90.20;;;;;;5121833;27;20390;-61
2024/04/03 00:25:15;;;;;;;3.05;0.20;;;13.80;90.30;;;;;;5120545;27;20116;-61
2024/04/03 00:27:41;;;;;;;1.02;0.10;;;13.80;90.40;;;;;;5121001;27;20062;-61
2024/04/03 00:30:07;;;;;;;1.73;0.17;;;13.70;90.60;;;;;;5122015;27;20035;-61
2024/04/03 00:32:34;;;;;;;1.77;0.10;;;13.60;90.70;;;;;;5121951;27;20494;-60
2024/04/03 00:35:00;;;;;;;3.10;0.20;;;13.60;90.80;;;;;;5120933;27;20097;-60
2024/04/03 00:37:26;;;;;;;7.32;0.40;;;13.70;90.70;;;;;;5122808;27;20183;-61
2024/04/03 00:39:56;;;;;;;3.10;0.20;;;13.60;90.80;;;;;;5121501;27;20145;-60
2024/04/03 00:42:21;;;;;;;1.77;0.10;;;13.70;90.80;;;;;;5110172;27;20043;-61
2024/04/03 00:44:53;;;;;;;1.83;0.17;;;13.80;90.90;;;;;;5121972;27;20092;-60
2024/04/03 00:47:18;;;;;;;2.13;0.15;;;13.70;91.00;;;;;;5101448;27;20074;-60
2024/04/03 00:49:45;;;;;;;1.20;0.10;;;13.70;91.00;;;;;;5117824;27;20107;-59
2024/04/03 00:52:14;;;;;;;2.20;0.20;;;13.70;91.10;;;;;;5098779;28;20097;-60
2024/04/03 00:54:44;;;;;;;1.85;0.17;;;13.70;91.30;;;;;;5123018;27;20445;-60
2024/04/03 00:57:13;;;;;;;1.98;0.20;;;13.70;91.40;;;;;;5124304;27;20088;-59
2024/04/03 00:59:40;;;;;;;5.07;0.20;;;13.70;91.40;;;;;;5123531;27;20397;-60
2024/04/03 01:02:06;;;;;;;1.33;0.10;;;13.70;91.50;;;;;;5122167;27;20042;-61
2024/04/03 01:04:31;;;;;;;2.30;0.20;;;13.70;91.50;;;;;;5126072;27;20427;-60
2024/04/03 01:07:01;;;;;;;0.98;0.20;;;13.70;91.60;;;;;;5119253;27;20039;-60
2024/04/03 01:09:26;;;;;;;2.63;0.30;;;13.70;91.60;;;;;;5097688;27;20492;-60
2024/04/03 01:11:52;;;;;;;2.88;0.20;;;13.70;91.50;;;;;;5123317;27;20039;-60
2024/04/03 01:14:18;;;;;;;0.57;0.20;;;13.70;91.60;;;;;;5118552;27;20139;-60
2024/04/03 01:16:43;;;;;;;2.05;0.20;;;13.80;91.60;;;;;;5126649;27;20078;-60
2024/04/03 01:19:09;;;;;;;2.10;0.17;;;13.70;91.50;;;;;;5106372;27;20474;-61
2024/04/03 01:21:36;;;;;;;1.33;0.10;;;13.70;91.50;;;;;;5126998;27;20065;-61
2024/04/03 01:24:01;;;;;;;1.67;0.20;;;13.60;91.50;;;;;;5123315;27;20043;-60
2024/04/03 01:26:27;;;;;;;2.25;0.13;;;13.60;91.70;;;;;;5108015;27;20039;-61
2024/04/03 01:28:53;;;;;;;2.13;0.20;;;13.60;91.90;;;;;;5119808;27;20080;-60
2024/04/03 01:31:19;;;;;;;4.55;0.20;;;13.50;92.00;;;;;;5120983;27;20062;-60
2024/04/03 01:33:44;;;;;;;2.25;0.20;;;13.50;92.00;;;;;;5125782;27;20022;-61
2024/04/03 01:36:10;;;;;;;2.30;0.20;;;13.50;92.00;;;;;;5122353;27;20402;-61
2024/04/03 01:38:35;;;;;;;0.52;0.03;;;13.50;92.00;;;;;;5107872;28;20517;-60
2024/04/03 01:41:08;;;;;;;1.05;0.10;;;13.50;92.00;;;;;;5122652;27;20126;-60
2024/04/03 01:43:33;;;;;;;4.95;0.22;;;13.50;92.20;;;;;;5118753;27;20031;-61
2024/04/03 01:46:00;;;;;;;1.00;0.10;;;13.50;92.30;;;;;;5116051;27;20053;-60
2024/04/03 01:48:25;;;;;;;2.72;0.20;;;13.40;92.20;;;;;;5119539;27;20045;-61
2024/04/03 01:50:51;;;;;;;2.10;0.10;;;13.30;92.30;;;;;;5118329;27;20374;-61
2024/04/03 01:53:17;;;;;;;1.27;0.10;;;13.30;92.50;;;;;;5119686;27;20127;-61
2024/04/03 01:55:56;;;;;;;1.65;0.10;;;13.30;92.70;;;;;;5122909;27;20446;-61
2024/04/03 01:58:23;;;;;;;2.45;0.20;;;13.20;92.70;;;;;;5120924;27;20042;-61
2024/04/03 02:00:49;;;;;;;2.13;0.10;;;13.20;92.80;;;;;;5121272;27;20034;-61
2024/04/03 02:03:15;;;;;;;1.45;0.10;;;13.20;92.90;;;;;;5121981;27;20075;-61
2024/04/03 02:05:45;;;;;;;0.50;0.00;;;13.20;92.90;;;;;;5126931;27;20042;-61
2024/04/03 02:08:14;;;;;;;2.03;0.22;;;13.20;92.90;;;;;;5122955;27;20038;-61
2024/04/03 02:10:39;;;;;;;1.38;0.10;;;13.10;92.90;;;;;;5107360;27;20061;-61
2024/04/03 02:13:05;;;;;;;2.58;0.20;;;13.10;93.20;;;;;;5106083;27;20043;-61
2024/04/03 02:15:31;;;;;;;1.80;0.10;;;13.10;93.20;;;;;;5127358;27;20034;-61
2024/04/03 02:17:57;;;;;;;1.02;0.20;;;13.10;93.30;;;;;;5131558;27;20035;-61
2024/04/03 02:20:23;;;;;;;4.18;0.10;;;13.20;93.30;;;;;;5121244;27;20363;-61
2024/04/03 02:22:49;;;;;;;1.45;0.22;;;13.20;93.30;;;;;;5126766;27;20035;-61
2024/04/03 02:25:16;;;;;;;1.02;0.10;;;13.10;93.30;;;;;;5126825;27;20561;-61
2024/04/03 02:27:42;;;;;;;1.00;0.20;;;13.00;93.30;;;;;;5104107;27;20377;-62
2024/04/03 02:30:08;;;;;;;2.20;0.10;;;13.00;93.60;;;;;;5128051;27;20039;-61
2024/04/03 02:32:33;;;;;;;1.38;0.10;;;13.00;93.60;;;;;;5121436;27;20039;-61
2024/04/03 02:34:59;;;;;;;2.50;0.10;;;13.10;93.70;;;;;;5120238;27;20366;-62
2024/04/03 02:37:24;;;;;;;2.22;0.10;;;13.10;93.60;;;;;;5124390;27;20377;-61
2024/04/03 02:39:57;;;;;;;2.58;0.30;;;13.10;93.50;;;;;;5121988;27;20038;-61
2024/04/03 02:42:29;;;;;;;0.55;0.13;;;13.00;93.60;;;;;;5104374;28;20482;-61
2024/04/03 02:44:55;;;;;;;2.33;0.20;;;13.10;93.60;;;;;;5104893;28;20042;-61
2024/04/03 02:47:20;;;;;;;4.00;0.30;;;13.00;93.90;;;;;;5098068;28;20034;-61
2024/04/03 02:49:46;;;;;;;1.63;0.15;;;13.00;93.70;;;;;;5103318;28;20482;-61
2024/04/03 02:52:11;;;;;;;2.55;0.13;;;13.10;93.70;;;;;;5105837;28;20561;-62
2024/04/03 02:54:37;;;;;;;2.35;0.10;;;13.00;93.60;;;;;;5103753;28;20074;-61
2024/04/03 02:57:03;;;;;;;1.75;0.15;;;13.00;93.70;;;;;;5100784;28;20043;-61
2024/04/03 02:59:28;;;;;;;1.15;0.20;;;13.00;93.70;;;;;;5105671;28;21048;-61
2024/04/03 03:01:54;;;;;;;1.90;0.10;;;12.90;93.70;;;;;;5105733;28;20040;-61
2024/04/03 03:04:24;;;;;;;4.82;0.30;;;12.90;93.90;;;;;;5103312;28;20170;-61
2024/04/03 03:06:50;;;;;;;0.77;0.13;;;12.90;93.80;;;;;;5083877;28;20048;-61
2024/04/03 03:09:20;;;;;;;1.10;0.10;;;12.90;93.80;;;;;;5079478;28;20039;-61
2024/04/03 03:11:46;;;;;;;5.55;0.30;;;13.00;93.80;;;;;;5072402;28;20383;-61
2024/04/03 03:14:11;;;;;;;2.88;0.20;;;13.00;93.70;;;;;;5065758;28;20032;-61
2024/04/03 03:16:37;;;;;;;10.07;0.70;;;12.90;93.70;;;;;;5104855;28;20099;-61
2024/04/03 03:19:02;;;;;;;2.08;0.17;;;12.90;93.90;;;;;;5105115;28;20837;-61
2024/04/03 03:21:28;;;;;;;2.75;0.30;;;12.90;93.90;;;;;;5106928;28;20043;-61
2024/04/03 03:23:54;;;;;;;1.83;0.20;;;12.90;93.80;;;;;;5093846;28;20335;-61
2024/04/03 03:26:20;;;;;;;0.68;0.10;;;12.90;93.80;;;;;;5099351;28;20036;-61
2024/04/03 03:28:45;;;;;;;0.82;0.10;;;12.80;94.00;;;;;;5104313;28;20114;-61
2024/04/03 03:31:13;;;;;;;1.90;0.10;;;12.80;94.00;;;;;;5095896;28;20130;-61
2024/04/03 03:33:38;;;;;;;1.33;0.15;;;12.80;94.00;;;;;;5095162;28;20035;-61
2024/04/03 03:36:04;;;;;;;2.60;0.17;;;12.80;94.00;;;;;;5100832;28;20027;-61
2024/04/03 03:38:30;;;;;;;5.43;0.38;;;12.80;94.00;;;;;;5104882;28;20032;-61
2024/04/03 03:41:05;;;;;;;1.15;0.13;;;12.90;94.10;;;;;;5101623;28;20036;-61
2024/04/03 03:43:30;;;;;;;1.50;0.10;;;12.90;94.00;;;;;;5099412;28;20343;-61
2024/04/03 03:45:56;;;;;;;1.48;0.17;;;12.90;94.10;;;;;;5106957;28;20032;-62
2024/04/03 03:53:58;;;;;;;2.40;0.25;;;12.80;94.30;;;;;;5104378;28;20085;-62
2024/04/03 03:56:24;;;;;;;2.35;0.20;;;12.70;94.20;;;;;;5106747;28;20036;-61
2024/04/03 03:58:50;;;;;;;0.47;0.10;;;12.70;94.30;;;;;;5107349;28;20069;-61
2024/04/03 04:01:16;;;;;;;5.72;0.40;;;12.70;94.40;;;;;;5099775;28;20777;-60
2024/04/03 04:03:41;;;;;;;6.10;0.30;;;12.70;94.50;;;;;;5103211;28;20571;-61
2024/04/03 04:06:14;;;;;;;2.45;0.15;;;12.70;94.20;;;;;;5107111;28;20096;-61
2024/04/03 04:08:39;;;;;;;2.67;0.20;;;12.70;94.30;;;;;;5100768;28;20044;-61
2024/04/03 04:11:12;;;;;;;2.45;0.20;;;12.60;94.40;;;;;;5102278;28;20042;-61
2024/04/03 04:13:37;;;;;;;1.95;0.25;;;12.70;94.40;;;;;;5103316;28;20020;-61
2024/04/03 04:16:03;;;;;;;4.45;0.30;;;12.70;94.40;;;;;;5106350;28;20039;-61
2024/04/03 04:18:32;;;;;;;1.23;0.20;;;12.70;94.30;;;;;;5108430;28;20036;-61
2024/04/03 04:20:58;;;;;;;0.73;0.10;;;12.70;94.40;;;;;;5106133;28;20061;-61
2024/04/03 04:23:26;;;;;;;2.97;0.20;;;12.70;94.30;;;;;;5107874;28;20031;-61
2024/04/03 04:26:04;;;;;;;2.70;0.20;;;12.70;94.20;;;;;;5104904;28;20066;-61
2024/04/03 04:28:30;;;;;;;2.15;0.30;;;12.70;94.00;;;;;;5106769;28;20747;-61
2024/04/03 04:31:04;;;;;;;3.65;0.13;;;12.70;94.10;;;;;;5109249;28;20085;-61
2024/04/03 04:33:34;;;;;;;4.72;0.30;;;12.70;94.10;;;;;;5108303;28;20517;-61
2024/04/03 04:36:00;;;;;;;1.75;0.20;;;12.60;94.20;;;;;;5106776;28;20072;-61
2024/04/03 04:38:28;;;;;;;1.02;0.10;;;12.60;94.30;;;;;;5103495;28;20047;-61
2024/04/03 04:41:01;;;;;;;2.75;0.13;;;12.60;94.30;;;;;;5103819;28;20085;-62
2024/04/03 04:43:27;;;;;;;;;;;12.60;94.20;;;;;;5101152;28;20046;-61
2024/04/03 04:46:00;;;;;;;2.45;0.20;;;12.60;94.40;;;;;;5106266;28;19919;-62
2024/04/03 04:48:27;;;;;;;2.50;0.32;;;12.60;94.20;;;;;;5110215;28;20039;-62
2024/04/03 04:50:53;;;;;;;3.75;0.22;;;12.60;94.30;;;;;;5107319;28;20035;-61
2024/04/03 04:53:19;;;;;;;4.65;0.40;;;12.60;94.30;;;;;;5102616;28;20057;-62
2024/04/03 04:55:56;;;;;;;4.40;0.30;;;12.50;94.10;;;;;;5104829;28;20047;-62
2024/04/03 04:58:23;;;;;;;1.77;0.10;;;12.50;94.20;;;;;;5106013;28;20063;-61
2024/04/03 05:00:49;;;;;;;1.40;0.13;;;12.40;94.30;;;;;;5104883;28;20028;-62
2024/04/03 05:03:15;;;;;;;2.55;0.20;;;12.40;94.30;;;;;;5081683;28;20044;-62
2024/04/03 05:05:40;;;;;;;8.18;0.50;;;12.40;94.20;;;;;;5073415;28;20032;-61
2024/04/03 05:08:07;;;;;;;3.80;0.30;;;12.40;94.10;;;;;;5080859;28;20036;-61
2024/04/03 05:10:39;;;;;;;6.65;0.50;;;12.40;94.20;;;;;;5075716;28;20032;-61
2024/04/03 05:13:05;;;;;;;6.38;0.50;;;12.50;94.20;;;;;;5070715;28;20044;-61
2024/04/03 05:15:30;;;;;;;1.85;0.30;;;12.40;94.10;;;;;;5080077;28;20051;-61
2024/04/03 05:17:57;;;;;;;1.42;0.20;;;12.40;94.20;;;;;;5070920;28;20395;-61
2024/04/03 05:20:23;;;;;;;3.08;0.38;;;12.40;94.10;;;;;;5051023;28;20079;-61
2024/04/03 05:22:49;;;;;;;1.98;0.20;;;12.40;94.30;;;;;;5061689;28;20052;-61
2024/04/03 05:25:14;;;;;;;4.07;0.38;;;12.40;94.20;;;;;;5024491;28;20033;-60
2024/04/03 05:27:40;;;;;;;2.22;0.30;;;12.40;94.30;;;;;;5017017;28;20065;-60
2024/04/03 05:30:06;;;;;;;2.78;0.40;;;12.40;94.30;;;;;;5029510;28;20128;-60
2024/04/03 05:32:31;;;;;;;7.22;0.40;;;12.40;94.30;;;;;;5038202;28;20045;-60
2024/04/03 05:34:57;;;;;;;2.83;0.35;;;12.40;94.40;;;;;;5017024;28;20044;-60
2024/04/03 05:37:22;;;;;;;6.43;0.50;;;12.40;94.40;;;;;;5008232;28;20267;-60
2024/04/03 05:39:55;;;;;;;4.68;0.38;;;12.40;94.30;;;;;;5022149;28;20036;-61
2024/04/03 05:42:20;;;;;;;1.52;0.25;;;12.50;94.30;;;;;;5049204;28;22820;-60
2024/04/03 05:44:46;;;;;;;1.88;0.30;;;12.40;94.30;;;;;;5043023;28;20064;-60
2024/04/03 05:47:11;;;;;;;3.35;0.30;;;12.40;94.50;;;;;;5020960;28;20033;-61
2024/04/03 05:49:37;;;;;;;3.63;0.43;;;12.50;94.30;;;;;;5039980;28;20044;-61
2024/04/03 05:52:09;;;;;;;2.58;0.30;;;12.50;94.00;;;;;;5026796;28;20034;-61
2024/04/03 05:54:34;;;;;;;1.42;0.22;;;12.50;94.10;;;;;;5021259;28;20044;-61
2024/04/03 05:57:00;;;;;;;5.32;0.40;;;12.50;94.10;;;;;;5052198;28;20123;-61
2024/04/03 05:59:25;;;;;;;2.47;0.30;;;12.50;93.90;;;;;;5040195;28;20044;-60
2024/04/03 06:01:51;;;;;;;2.90;0.22;;;12.40;94.00;;;;;;5030806;28;20443;-60
2024/04/03 06:04:17;;;;;;;1.63;0.30;;;12.40;93.90;;;;;;5021466;28;20029;-61
2024/04/03 06:06:43;;;;;;;4.40;0.40;;;12.40;94.10;;;;;;4982061;28;20026;-61
2024/04/03 06:09:09;;;;;;;3.05;0.30;;;12.50;94.40;;;;;;5010156;28;20044;-60
2024/04/03 06:11:34;;;;;;;2.80;0.30;;;12.50;94.40;;;;;;5023937;28;20045;-60
2024/04/03 06:14:00;;;;;;;2.95;0.40;;;12.60;94.20;;;;;;5006099;28;20057;-61
2024/04/03 06:16:26;;;;;;;4.03;0.40;;;12.60;94.20;;;;;;5044936;28;20100;-60
2024/04/03 06:18:51;;;;;;;6.30;0.40;;;12.60;94.10;;;;;;5016222;28;20044;-60
2024/04/03 06:21:18;;;;;;;1.65;0.20;;;12.60;94.10;;;;;;5009581;28;20049;-61
2024/04/03 06:23:43;;;;;;;2.92;0.47;;;12.70;94.10;;;;;;5018805;28;20038;-61
2024/04/03 06:26:09;;;;;;;3.65;0.30;;;12.70;93.70;;;;;;5022556;28;20048;-61
2024/04/03 06:28:35;;;;;;;2.33;0.38;;;12.70;93.70;;;;;;4990475;28;20379;-60
2024/04/03 06:31:00;;;;;;;3.58;0.30;;;12.70;93.70;;;;;;4998142;28;20441;-61
2024/04/03 06:33:32;;;;;;;4.78;0.47;;;12.80;93.70;;;;;;4993728;28;20061;-60
2024/04/03 06:35:58;;;;;;;1.65;0.22;;;12.70;93.80;;;;;;5006274;28;20519;-61
2024/04/03 06:38:23;;;;;;;4.93;0.45;;;12.70;93.70;;;;;;5030823;28;20037;-61
2024/04/03 06:40:49;;;;;;;2.72;0.40;;;12.70;93.50;;;;;;5038728;28;20120;-60
2024/04/03 06:43:15;;;;;;;1.17;0.20;;;12.70;93.50;;;;;;5024680;28;20356;-61
2024/04/03 06:45:41;;;;;;;5.18;0.43;;;12.70;93.20;;;;;;5021848;28;20349;-61
2024/04/03 06:48:06;;;;;;;3.72;0.40;;;12.70;93.30;;;;;;5028598;28;22427;-59
2024/04/03 06:50:32;;;;;;;1.85;0.20;;;12.70;93.40;;;;;;5032727;28;20182;-60
2024/04/03 06:53:00;;;;;;;3.75;0.40;;;12.70;93.50;;;;;;5039757;28;20042;-60
2024/04/03 06:55:26;;;;;;;3.00;0.28;;;12.70;93.70;;;;;;5022187;28;20168;-60
2024/04/03 06:57:51;;;;;;;1.40;0.30;;;12.70;93.80;;;;;;5032218;28;20112;-60
2024/04/03 07:00:17;;;;;;;2.92;0.40;;;12.70;93.90;;;;;;5044418;28;20468;-60
2024/04/03 07:02:43;;;;;;;3.03;0.50;;;12.80;94.00;;;;;;5032186;28;20045;-61
2024/04/03 07:05:09;;;;;;;4.13;0.32;;;12.80;94.00;;;;;;5045359;28;20100;-61
2024/04/03 07:07:34;;;;;;;3.13;0.30;;;12.90;94.00;;;;;;5058811;28;20033;-61
2024/04/03 07:10:08;;;;;;;6.70;0.80;;;12.80;94.00;;;;;;5031940;28;20413;-61
2024/04/03 07:12:33;;;;;;;;;;;12.80;94.00;;;;;;5053633;28;20028;-60
2024/04/03 07:14:59;;;;;;;;;;;12.80;94.10;;;;;;5047672;28;19913;-60
2024/04/03 07:17:24;;;;;;;4.70;0.30;;;12.70;94.20;;;;;;5040458;28;19959;-61
2024/04/03 07:19:50;;;;;;;2.15;0.20;;;12.70;94.30;;;;;;5050785;28;20044;-61
2024/04/03 07:22:16;;;;;;;1.27;0.10;;;12.80;94.30;;;;;;5067663;28;20545;-60
2024/04/03 07:24:41;;;;;;;8.30;0.70;;;12.80;94.40;;;;;;5052434;28;20142;-61
2024/04/03 07:27:07;;;;;;;3.78;0.40;;;12.80;94.40;;;;;;5047711;28;20132;-60
2024/04/03 07:29:32;;;;;;;4.47;0.47;;;12.80;94.40;;;;;;5045895;28;20112;-60
2024/04/03 07:31:58;;;;;;;2.08;0.30;;;12.80;94.50;;;;;;5057163;28;20037;-61
2024/04/03 07:34:23;;;;;;;1.73;0.20;;;12.80;94.70;;;;;;5030508;28;20047;-60
2024/04/03 07:36:49;;;;;;;2.10;0.20;;;12.80;94.90;;;;;;5057133;28;20442;-62
2024/04/03 07:39:14;;;;;;;2.45;0.30;;;12.80;94.80;;;;;;5039661;28;20049;-61
2024/04/03 07:41:40;;;;;;;4.68;0.30;;;12.80;94.50;;;;;;5027493;28;20041;-61
2024/04/03 07:44:06;;;;;;;1.13;0.30;;;12.80;94.60;;;;;;5013350;28;20045;-60
2024/04/03 07:46:31;;;;;;;1.25;0.10;;;12.70;94.50;;;;;;5021960;28;20132;-60
2024/04/03 07:48:58;;;;;;;2.83;0.20;;;12.70;94.30;;;;;;5066750;28;20438;-60
2024/04/03 07:51:23;;;;;;;4.13;0.40;;;12.70;94.70;;;;;;5067401;28;20047;-61
2024/04/03 07:53:49;;;;;;;1.52;0.20;;;12.70;94.80;;;;;;5043900;28;20391;-61
2024/04/03 07:56:15;;;;;;;0.85;0.30;;;12.70;95.00;;;;;;5024641;28;20061;-60
2024/04/03 07:58:41;;;;;;;1.48;0.20;;;12.70;94.90;;;;;;5041215;28;20041;-60
2024/04/03 08:01:07;;;;;;;0.55;0.13;;;12.70;94.90;;;;;;5019790;28;20041;-60
2024/04/03 08:03:33;;;;;;;5.82;0.90;;;12.70;94.90;;;;;;5020537;28;20086;-59
2024/04/03 08:05:58;;;;;;;2.47;0.30;;;12.70;95.20;;;;;;5027392;28;20040;-60
2024/04/03 08:08:28;;;;;;;4.70;0.30;;;12.70;95.30;;;;;;5051154;28;20054;-60
2024/04/03 08:11:04;;;;;;;3.33;0.30;;;12.70;95.40;;;;;;5058403;28;20472;-60
2024/04/03 08:13:30;;;;;;;5.15;0.28;;;12.70;95.10;;;;;;5055069;28;20055;-60
2024/04/03 08:16:06;;;;;;;1.27;0.30;;;12.80;95.40;;;;;;5045073;28;20020;-60
2024/04/03 08:18:32;;;;;;;1.27;0.10;;;12.80;95.20;;;;;;5009802;28;20054;-59
2024/04/03 08:21:03;;;;;;;0.85;0.10;;;12.80;95.50;;;;;;5004411;28;20096;-59
2024/04/03 08:23:29;;;;;;;1.95;0.30;;;12.80;95.10;;;;;;5022441;28;20476;-60
2024/04/03 08:25:55;;;;;;;3.47;0.30;;;12.60;95.30;;;;;;5028187;28;20043;-60
2024/04/03 08:28:20;;;;;;;3.95;0.45;;;12.60;95.60;;;;;;5044317;28;20033;-60
2024/04/03 08:30:46;;;;;;;1.35;0.20;;;12.60;95.60;;;;;;5068585;28;20071;-61
2024/04/03 08:33:11;;;;;;;2.05;0.20;;;12.70;95.20;;;;;;5063823;28;20044;-60
2024/04/03 08:35:37;;;;;;;2.63;0.30;;;12.60;95.50;;;;;;5053398;28;20040;-60
2024/04/03 08:38:09;;;;;;;1.77;0.10;;;12.70;95.50;;;;;;5039122;28;20403;-60
2024/04/03 08:40:35;;;;;;;3.05;0.57;;;12.60;95.60;;;;;;5020860;28;20476;-61
2024/04/03 08:43:01;;;;;;;2.75;0.25;;;12.60;95.50;;;;;;5052546;28;20038;-61
2024/04/03 08:45:29;;;;;;;0.82;0.17;;;12.60;95.70;;;;;;5027950;28;20029;-60
2024/04/03 08:47:56;;;;;;;2.72;0.25;;;12.50;95.50;;;;;;5011775;28;20070;-60
2024/04/03 08:50:22;;;;;;;1.00;0.20;;;12.60;96.00;;;;;;4993800;28;20045;-61
2024/04/03 08:52:49;;;;;;;6.57;0.52;;;12.60;96.10;;;;;;5003487;28;20029;-60
2024/04/03 08:55:15;;;;;;;2.80;0.35;;;12.60;95.80;;;;;;4974995;28;20026;-61
2024/04/03 08:57:41;;;;;;;2.88;0.30;;;12.70;96.00;;;;;;4941754;28;20035;-60
2024/04/03 09:00:08;;;;;;;1.90;0.38;;;12.80;96.10;;;;;;4987223;28;20041;-61
2024/04/03 09:02:33;;;;;;;1.30;0.20;;;12.80;96.00;;;;;;5019180;28;20087;-60
2024/04/03 09:04:59;;;;;;;0.30;0.13;;;12.90;96.20;;;;;;5031925;28;20045;-60
2024/04/03 09:07:25;;;;;;;5.20;0.40;;;12.90;96.00;;;;;;5019807;28;20511;-61
2024/04/03 09:09:57;;;;;;;1.98;0.25;;;12.80;96.00;;;;;;4999069;28;20062;-60
2024/04/03 09:12:25;;;;;;;1.05;0.20;;;12.90;96.40;;;;;;5007440;28;20034;-61
2024/04/03 09:15:05;;;;;;;4.60;0.30;;;13.00;96.40;;;;;;4947701;28;20037;-61
2024/04/03 09:17:31;;;;;;;4.18;0.40;;;13.10;96.40;;;;;;4949848;28;20069;-61
2024/04/03 09:19:56;;;;;;;1.67;0.30;;;13.10;95.80;;;;;;4985915;28;20124;-61
2024/04/03 09:22:22;;;;;;;3.30;0.30;;;13.00;95.60;;;;;;4997216;28;20115;-60
2024/04/03 09:24:48;;;;;;;4.13;0.45;;;13.10;95.60;;;;;;5004741;28;20025;-61
2024/04/03 09:27:13;;;;;;;1.40;0.20;;;13.10;95.80;;;;;;5038278;28;20139;-62
2024/04/03 09:29:39;;;;;;;1.35;0.25;;;13.10;96.00;;;;;;5032278;28;20076;-62
2024/04/03 09:32:11;;;;;;;3.85;0.30;;;13.20;96.20;;;;;;5030830;28;20264;-61
2024/04/03 09:34:38;;;;;;;1.27;0.30;;;13.20;96.00;;;;;;5041306;28;20036;-61
2024/04/03 09:37:04;;;;;;;1.65;0.20;;;13.30;95.70;;;;;;5017790;28;20041;-61
2024/04/03 09:39:29;;;;;;;0.25;0.10;;;13.30;95.90;;;;;;4988600;28;20030;-61
2024/04/03 09:42:05;;;;;;;2.58;0.30;;;13.50;96.10;;;;;;5010365;28;20061;-61
2024/04/03 09:44:31;;;;;;;0.98;0.10;;;13.60;95.70;;;;;;4974731;28;20043;-61
2024/04/03 09:47:05;;;;;;;1.95;0.20;;;13.70;95.30;;;;;;5019913;28;20124;-60
2024/04/03 09:49:40;;;;;;;1.55;0.30;;;13.80;95.00;;;;;;5054250;28;20068;-61
2024/04/03 09:52:08;;;;;;;4.07;0.30;;;13.80;94.80;;;;;;5016634;28;20480;-59
2024/04/03 09:54:34;;;;;;;2.97;0.30;;;13.90;94.80;;;;;;5000264;28;20037;-61
2024/04/03 09:57:00;;;;;;;3.95;0.40;;;13.90;94.80;;;;;;5008794;28;20482;-61
2024/04/03 09:59:27;;;;;;;1.02;0.15;;;14.00;95.20;;;;;;5001447;28;20050;-61
2024/04/03 10:01:53;;;;;;;2.10;0.20;;;14.10;95.10;;;;;;4977712;28;20478;-61
2024/04/03 10:04:18;;;;;;;1.75;0.13;;;14.00;95.20;;;;;;4990662;28;20198;-61
2024/04/03 10:06:44;;;;;;;3.42;0.30;;;14.00;95.10;;;;;;4995534;28;20068;-61
2024/04/03 10:09:22;;;;;;;4.05;0.47;;;14.00;95.10;;;;;;4992708;28;20131;-62
2024/04/03 10:11:51;;;;;;;2.92;0.25;;;14.00;95.10;;;;;;4981549;28;20152;-61
2024/04/03 10:14:30;;;;;;;0.95;0.28;;;13.90;95.30;;;;;;4967041;28;20434;-62
2024/04/03 10:16:56;;;;;;;1.65;0.20;;;13.90;95.50;;;;;;4980334;28;20611;-60
2024/04/03 10:19:31;;;;;;;4.22;0.45;;;13.80;95.30;;;;;;4984166;28;20026;-61
2024/04/03 10:22:01;;;;;;;4.93;0.45;;;13.80;95.40;;;;;;5006069;28;20107;-61
2024/04/03 10:24:30;;;;;;;3.78;0.30;;;13.80;95.40;;;;;;5022692;28;20061;-61
2024/04/03 10:26:56;;;;;;;2.97;0.22;;;13.70;95.40;;;;;;5004264;28;20039;-61
2024/04/03 10:29:21;;;;;;;3.15;0.40;;;13.80;95.70;;;;;;5026483;28;20087;-62
2024/04/03 10:31:47;;;;;;;1.17;0.20;;;13.70;95.70;;;;;;4997293;28;20514;-61
2024/04/03 10:34:17;;;;;;;1.42;0.22;;;13.80;95.30;;;;;;4941775;28;20149;-61
2024/04/03 10:36:43;;;;;;;2.20;0.22;;;13.70;95.40;;;;;;4974090;28;20380;-61
2024/04/03 10:39:09;;;;;;;3.45;0.20;;;13.80;95.50;;;;;;5019915;28;20030;-60
2024/04/03 10:41:35;;;;;;;0.30;0.10;;;13.70;95.20;;;;;;4993413;28;20030;-64
2024/04/03 10:44:00;;;;;;;3.42;0.20;;;13.70;95.10;;;;;;4997697;28;20477;-61
2024/04/03 10:46:26;;;;;;;1.92;0.30;;;13.70;95.60;;;;;;4979541;28;20659;-61
2024/04/03 10:48:59;;;;;;;1.73;0.17;;;13.70;95.40;;;;;;4969396;28;20058;-61
2024/04/03 10:51:25;;;;;;;1.45;0.20;;;13.60;95.80;;;;;;4972128;28;20043;-60
2024/04/03 10:53:51;;;;;;;1.25;0.20;;;13.60;95.70;;;;;;4968604;28;20058;-61
2024/04/03 10:56:18;;;;;;;1.65;0.30;;;13.60;95.60;;;;;;4963170;28;20502;-61
2024/04/03 10:58:50;;;;;;;1.95;0.20;;;13.60;95.90;;;;;;4950504;28;20046;-61
2024/04/03 11:01:16;;;;;;;2.72;0.30;;;13.50;95.80;;;;;;4900897;28;20052;-61
2024/04/03 11:03:43;;;;;;;1.77;0.25;;;13.50;96.20;;;;;;4961037;28;20113;-61
2024/04/03 11:06:12;;;;;;;3.80;0.50;;;13.50;96.10;;;;;;4985324;28;20103;-61
2024/04/03 11:08:39;;;;;;;3.88;0.30;;;13.50;96.30;;;;;;4995000;28;20031;-61
2024/04/03 11:11:07;;;;;;;1.15;0.28;;;13.50;96.40;;;;;;4955265;28;20422;-61
2024/04/03 11:13:32;;;;;;;2.92;0.30;;;13.50;96.80;;;;;;4957056;28;20035;-61
2024/04/03 11:15:58;;;;;;;3.10;0.50;;;13.60;97.10;;;;;;4964851;28;20050;-62
2024/04/03 11:18:27;;;;;;;5.70;0.50;;;13.70;96.50;;;;;;4994303;28;20520;-62
2024/04/03 11:20:53;;;;;;;1.25;0.13;;;13.70;96.90;;;;;;4964356;28;20036;-61
2024/04/03 11:23:19;;;;;;;1.98;0.30;;;13.70;95.90;;;;;;4943598;28;20058;-62
2024/04/03 11:25:44;;;;;;;2.65;0.20;;;13.60;95.80;;;;;;4930331;28;20111;-61
2024/04/03 11:28:12;;;;;;;0.20;0.05;;;13.60;95.60;;;;;;4947532;28;20113;-61
2024/04/03 11:30:39;;;;;;;0.00;0.00;;;13.60;94.90;;;;;;4946731;28;20091;-61
2024/04/03 11:33:06;;;;;;;0.00;0.00;;;13.50;95.10;;;;;;4970217;28;20493;-61
2024/04/03 11:35:31;;;;;;;1.13;0.00;;;13.40;95.20;;;;;;4969659;28;20034;-61
2024/04/03 11:38:00;;;;;;;0.20;0.00;;;13.40;95.40;;;;;;4937225;28;23830;-61
2024/04/03 11:40:27;;;;;;;0.75;0.03;;;13.40;95.70;;;;;;4933164;28;20502;-61
2024/04/03 11:42:52;;;;;;;0.35;0.00;;;13.40;94.40;;;;;;4930037;28;20050;-61
2024/04/03 11:45:18;;;;;;;0.30;0.00;;;13.30;94.80;;;;;;4940755;28;20034;-60
2024/04/03 11:47:51;;;;;;;0.73;0.08;;;13.30;95.00;;;;;;4940300;28;20479;-60
2024/04/03 11:50:17;;;;;;;0.50;0.00;;;13.30;94.60;;;;;;4915173;28;20031;-59
2024/04/03 11:52:42;;;;;;;0.65;0.00;;;13.30;94.60;;;;;;4921926;28;20127;-60
2024/04/03 11:55:09;;;;;;;0.00;0.00;;;13.30;94.50;;;;;;4901932;29;20059;-59
2024/04/03 11:57:35;;;;;;;1.38;0.00;;;13.20;94.20;;;;;;4921953;28;20048;-60
2024/04/03 12:00:00;;;;;;;0.00;0.00;;;13.10;94.70;;;;;;4924116;28;20040;-60
2024/04/03 12:02:32;;;;;;;0.98;0.10;;;13.10;94.90;;;;;;4943032;28;20044;-61
2024/04/03 12:04:57;;;;;;;3.45;0.10;;;13.10;95.10;;;;;;4940960;28;20166;-59
2024/04/03 12:07:23;;;;;;;1.77;0.10;;;13.10;95.00;;;;;;4955974;28;20546;-60
2024/04/03 12:09:49;;;;;;;1.85;0.00;;;13.10;95.20;;;;;;4965293;28;20038;-59
2024/04/03 12:12:15;;;;;;;0.88;0.10;;;13.00;95.30;;;;;;4987868;28;20038;-60
2024/04/03 12:14:43;;;;;;;0.00;0.00;;;12.90;95.40;;;;;;4986207;28;20125;-60
2024/04/03 12:17:09;;;;;;;0.60;0.10;;;12.90;95.90;;;;;;4979886;28;20164;-60
2024/04/03 12:19:44;;;;;;;0.35;0.00;;;12.90;95.90;;;;;;4993620;28;20497;-60
2024/04/03 12:22:13;;;;;;;0.10;0.00;;;12.70;96.20;;;;;;4955971;28;20137;-61
2024/04/03 12:24:41;;;;;;;0.35;0.00;;;12.80;96.80;;;;;;4945268;28;20361;-61
2024/04/03 12:27:06;;;;;;;0.88;0.10;;;12.90;96.20;;;;;;4963444;28;20034;-61
2024/04/03 12:29:32;;;;;;;0.10;0.00;;;12.90;96.30;;;;;;4992025;28;20049;-60
2024/04/03 12:31:59;;;;;;;1.42;0.25;;;13.00;95.90;;;;;;5032812;28;20032;-59
2024/04/03 12:34:25;;;;;;;0.00;0.00;;;13.00;96.30;;;;;;5041113;28;20045;-60
2024/04/03 12:36:50;;;;;;;0.32;0.00;;;13.00;95.90;;;;;;5015097;28;20084;-60
2024/04/03 12:39:17;;;;;;;0.00;0.00;;;13.00;96.30;;;;;;5003187;28;20484;-60
2024/04/03 12:41:42;;;;;;;0.75;0.00;;;13.00;96.50;;;;;;5006273;28;20055;-61
2024/04/03 12:44:14;;;;;;;0.28;0.00;;;13.10;96.30;;;;;;4961706;28;20038;-62
2024/04/03 12:46:39;;;;;;;0.00;0.00;;;12.90;96.40;;;;;;4985907;28;20045;-61
2024/04/03 12:49:05;;;;;;;0.63;0.00;;;12.80;96.00;;;;;;4979623;28;20034;-61
2024/04/03 12:51:32;;;;;;;0.68;0.10;;;12.70;96.70;;;;;;5004187;28;20127;-61